• Join FlightAware (Why Join?)
  • Login
  • US Flag 
06:32PM EDT


 

Airport Tracker/Info


-or-


 

Live Flight TrackerFlight Track Log ✈ SWA499 ✈ 24-Apr-2013 ✈ KDEN - KMCI

Flight Track Log - Related Links

Times and Time Zones

All times are in EDT time to prevent confusion due to time zone crossing. See the SWA499 flight status page for this flight to view local times or setup timezone preferences in your user account.

Time Position Orientation Groundspeed Altitude Reporting Facility
EDT Latitude Longitude Course Direction KTS MPH feet Rate Location/Type
12:35PM 39.7833 -104.6167 113° Southeast 235 270 9,200  Level Denver TRACON
12:36PM 39.7667 -104.5167 102° East 288 331 10,000 780 Climbing Denver TRACON
12:36PM 39.7667 -104.4167 90° East 314 361 10,700 2,280 Climbing Denver TRACON
12:38PM 39.7675 -104.2733 90° East 334 384 15,000 3,120 Climbing Denver Center
12:39PM 39.7656 -104.1425 91° East 361 415 18,000 2,820 Climbing Denver Center
12:40PM 39.7427 -103.7780 113° Southeast  Level FlightAware Approximate
12:40PM 39.7647 -103.9903 90° East 394 453 20,900  Level Denver Center
12:41PM 39.7539 -103.8386 95° East 423 487 23,300 2,220 Climbing Denver Center
12:42PM 39.7381 -103.6808 97° East 430 495 25,500 1,800 Climbing Denver Center
12:44PM 39.7078 -103.3214 96° East 508 585 29,000 1,560 Climbing Denver Center
12:45PM 39.6925 -103.1264 96° East 539 620 30,500 1,680 Climbing Denver Center
12:46PM 39.6725 -102.8872 96° East 564 649 32,600 2,100 Climbing Denver Center
12:47PM 39.6533 -102.6858 97° East 564 649 34,900 1,140 Climbing Denver Center
12:48PM 39.6378 -102.4942 96° East 561 646 35,000  Climbing Denver Center
12:49PM 39.6183 -102.2708 96° East 559 643 35,000 240 Level Denver Center
12:50PM 39.6003 -102.0781 97° East 562 647 35,500 1,320 Climbing Denver Center
12:51PM 39.5817 -101.8572 96° East 556 640 37,800 1,680 Climbing Denver Center
12:52PM 39.5669 -101.6728 96° East 543 625 39,000 540 Climbing Denver Center
12:53PM 39.5492 -101.4594 96° East 536 617 39,000  Level Denver Center
12:54PM 39.5275 -101.2808 99° East 531 611 39,000  Level Denver Center
12:55PM 39.4958 -101.0711 101° East 532 612 39,000  Level Denver Center
12:56PM 39.4683 -100.8897 101° East 537 618 39,000  Level Denver Center
12:57PM 39.4364 -100.6828 101° East 529 609 39,000  Level Denver Center
12:58PM 39.4089 -100.5028 101° East 533 613 39,000  Level Denver Center
12:59PM 39.3769 -100.2947 101° East 532 612 39,000  Level Denver Center
01:01PM 39.3489 -100.1147 101° East 535 616 39,000  Level Denver Center
01:02PM 39.3153 -99.9053 102° East 536 617 39,000  Level Denver Center
01:03PM 39.2861 -99.7267 102° East 533 613 39,000  Level Denver Center
01:04PM 39.2519 -99.5158 102° East 537 618 39,000  Level Denver Center
01:05PM 39.2225 -99.3378 102° East 533 613 39,000  Level Denver Center
01:06PM 39.1881 -99.1272 102° East 537 618 39,000 -240 Level Denver Center
01:07PM 39.1597 -98.9597 102° East 538 619 38,500 -720 Descending Denver Center
01:08PM 39.1275 -98.7714 102° East 538 619 37,600 -1,020 Descending Denver Center
01:08PM 39.1028 -98.6258 102° East 546 628 36,800 -960 Descending Kansas City Center
01:10PM 39.0683 -98.4328 103° East 553 636 35,900 -900 Descending Kansas City Center
01:11PM 39.0275 -98.1969 102° East 560 644 35,000 -480 Descending Kansas City Center
01:12PM 39.0064 -98.0022 98° East 558 642 35,000  Level Kansas City Center
01:13PM 38.9958 -97.8067 94° East 560 644 35,000  Level Kansas City Center
01:14PM 38.9806 -97.5861 95° East 555 639 35,000  Level Kansas City Center
01:15PM 38.9667 -97.4058 96° East 555 639 35,000  Level Kansas City Center
01:16PM 38.9528 -97.2083 95° East 554 638 35,000  Level Kansas City Center
01:17PM 38.9381 -97.0106 95° East 555 639 35,000 -1,020 Level Kansas City Center
01:18PM 38.9231 -96.8153 96° East 549 632 33,000 -3,120 Descending Kansas City Center
01:19PM 38.9050 -96.5725 95° East 566 651 28,700 -3,060 Descending Kansas City Center
01:20PM 38.8881 -96.3861 97° East 569 655 26,700 -1,800 Descending Kansas City Center
01:21PM 38.8711 -96.1775 96° East 538 619 25,000 -840 Descending Kansas City Center
01:22PM 38.8569 -96.0133 96° East 493 567 25,000  Level Kansas City Center
01:23PM 38.8400 -95.8175 96° East 494 568 25,000 -2,040 Level Kansas City Center
01:24PM 38.8258 -95.6492 96° East 498 573 20,900 -3,480 Descending Kansas City Center
01:25PM 38.8097 -95.4583 96° East 487 560 17,800 -3,120 Descending Kansas City Center
01:26PM 38.8592 -95.3378 62° Northeast 408 470 14,600 -3,120 Descending Kansas City Center
01:27PM 38.9625 -95.2761 25° Northeast 366 421 11,300 -2,160 Descending Kansas City Center
01:28PM 39.0042 -95.1783 61° Northeast 332 382 10,100 -1,440 Descending Kansas City Center
01:29PM 39.0089 -95.0631 87° East 298 343 8,400 -1,260 Descending Kansas City Center
01:30PM 39.0006 -94.9661 96° East 287 330 7,500 -1,020 Descending Kansas City Center
01:31PM 38.9994 -94.8703 91° East 242 278 6,400 -1,020 Descending Kansas City Center
01:32PM 39.0183 -94.7953 72° East 232 267 5,400 -720 Descending Kansas City Center
01:33PM 39.0819 -94.7686 18° North 214 246 5,000 -720 Descending Kansas City Center
01:34PM 39.1378 -94.7522 13° North 216 249 4,000 -1,020 Descending Kansas City Center
01:35PM 39.1883 -94.7369 13° North 161 185 3,000 -840 Descending Kansas City Center
01:36PM 39.2233 -94.7267 13° North 140 161 2,300 -780 Descending Kansas City Center
01:37PM 39.2650 -94.7147 13° North 136 157 1,400 -660 Descending Kansas City Center
01:39PM 39.2975 -94.7064 11° North 132 152 1,000 -420 Descending Kansas City Center